Roanoke — WDD9656 — position and weather

sailwx.info

Track history (hours):
 
Tides and Currents Weather Stations Pressure Air Temp Water Temp Dewpoint Dewpoint Depression Visibility Wind Speed Wind Dir Waves Ship Positions

Roanoke

Owner: Vane Line Bunkering, Baltimore, MD. More information available from US FCC via Universal Licensing System and Coast Guard Vessel Documentation Center.

Last reported at 2014-Nov-21 23:10 UTC. Time now 2014-Nov-22 05:03 UTC.
Position N 38°56' W 076°24'.

Length 32 m; draft 13 m.

Type: Towing. MMSI: 367314510.

Date/timePositionNaut miles runAvg speedWind from/ knotsBaromVisibWave heightAir tempDewpointWater temp
2014-Nov-21 23:10N 38°56' W 076°24'5 7.7
2014-Nov-21 22:33N 39°00' W 076°23'7 7.2
2014-Nov-21 21:34N 39°07' W 076°24'7 7.3
2014-Nov-21 20:34N 39°12' W 076°31'4 3.7
2014-Nov-21 19:31N 39°15' W 076°33'0 0.0
2014-Nov-21 18:32N 39°15' W 076°33'0 0.0
2014-Nov-21 17:30N 39°15' W 076°33'0 0.0
2014-Nov-21 16:33N 39°15' W 076°33'0 0.0
2014-Nov-21 15:31N 39°15' W 076°33'0 0.0
2014-Nov-21 14:32N 39°15' W 076°33'0 0.0
2014-Nov-21 13:32N 39°15' W 076°33'0 0.0
2014-Nov-21 12:33N 39°15' W 076°33'0 0.0
2014-Nov-21 11:33N 39°15' W 076°33'0 0.0
2014-Nov-21 10:31N 39°15' W 076°33'0 0.0
2014-Nov-21 09:31N 39°15' W 076°33'1 1.0
2014-Nov-21 08:33N 39°15' W 076°34'0 0.0
2014-Nov-21 07:31N 39°15' W 076°34'0 0.0
2014-Nov-21 06:23N 39°15' W 076°34'0 0.0
2014-Nov-21 05:32N 39°15' W 076°34'0 0.0
2014-Nov-21 04:33N 39°15' W 076°34'0 0.0
2014-Nov-21 03:31N 39°15' W 076°34'0 0.0
2014-Nov-21 02:29N 39°15' W 076°34'0 0.0
2014-Nov-21 01:20N 39°15' W 076°34'0 0.1
2014-Nov-20 22:29N 39°15' W 076°34'2 1.6
2014-Nov-20 21:34N 39°14' W 076°33'7 6.8
2014-Nov-20 20:34N 39°11' W 076°24'38 7.6
2014-Nov-20 15:33N 39°33' W 075°44'9 8.5
2014-Nov-20 14:33N 39°33' W 075°33'10 9.7
2014-Nov-20 13:33N 39°24' W 075°29'4 0.3
2014-Nov-19 22:24N 39°20' W 075°26'6 7.5
2014-Nov-19 21:33N 39°25' W 075°31'6 6.3
2014-Nov-19 20:33N 39°31' W 075°33'5 4.9
2014-Nov-19 19:33N 39°33' W 075°39'7 6.7
2014-Nov-19 18:33N 39°32' W 075°47'30 5.8
2014-Nov-19 13:21N 39°14' W 076°19'5 6.4
2014-Nov-19 12:33N 39°11' W 076°25'6 6.1
2014-Nov-19 11:33N 39°13' W 076°32'2 2.3
2014-Nov-19 10:32N 39°15' W 076°33'0 0.0
2014-Nov-19 09:33N 39°15' W 076°33'0 0.0
2014-Nov-19 08:31N 39°15' W 076°33'0 0.0
2014-Nov-19 07:32N 39°15' W 076°33'0 0.0
2014-Nov-19 06:33N 39°15' W 076°33'0 0.0
2014-Nov-19 05:33N 39°15' W 076°33'0 0.0
2014-Nov-19 04:33N 39°15' W 076°33'0 0.0
2014-Nov-19 03:31N 39°15' W 076°33'0 0.0
2014-Nov-19 02:32N 39°15' W 076°33'0 0.0
2014-Nov-19 01:33N 39°15' W 076°33'0 0.0
2014-Nov-19 00:30N 39°15' W 076°33'0 0.0
2014-Nov-18 23:31N 39°15' W 076°33'0 0.0
2014-Nov-18 22:29N 39°15' W 076°33'0 0.0
2014-Nov-18 21:32N 39°15' W 076°33'0 0.0
2014-Nov-18 20:33N 39°15' W 076°33'0 0.0
2014-Nov-18 19:25N 39°15' W 076°33'0 0.0
2014-Nov-18 18:31N 39°15' W 076°33'0 0.0
2014-Nov-18 17:26N 39°15' W 076°33'0 0.0
2014-Nov-18 16:18N 39°15' W 076°33'0 0.0
2014-Nov-18 15:27N 39°15' W 076°33'0 0.0
2014-Nov-18 14:31N 39°15' W 076°33'0 0.0
2014-Nov-18 13:32N 39°15' W 076°33'0 0.0
2014-Nov-18 12:29N 39°15' W 076°33'0 0.0
2014-Nov-18 11:30N 39°15' W 076°33'0 0.0
2014-Nov-18 10:31N 39°15' W 076°33'0 0.0
2014-Nov-18 09:31N 39°15' W 076°33'0 0.0
2014-Nov-18 08:29N 39°15' W 076°33'0 0.0
2014-Nov-18 07:33N 39°15' W 076°33'0 0.0
2014-Nov-18 06:31N 39°15' W 076°33'0 0.0
2014-Nov-18 05:31N 39°15' W 076°33'0 0.0
2014-Nov-18 04:32N 39°15' W 076°33'0 0.0
2014-Nov-18 03:33N 39°15' W 076°33'0 0.0
2014-Nov-18 02:09N 39°15' W 076°33'0 0.0
2014-Nov-18 01:28N 39°15' W 076°33'0 0.0
2014-Nov-18 00:31N 39°15' W 076°33'0 0.0
2014-Nov-17 23:30N 39°15' W 076°33'0 0.0
2014-Nov-17 22:33N 39°15' W 076°33'0 0.0
2014-Nov-17 21:33N 39°15' W 076°33'1 1.0
2014-Nov-17 20:33N 39°15' W 076°34'0 0.0
2014-Nov-17 19:31N 39°15' W 076°34'0 0.0
2014-Nov-17 18:26N 39°15' W 076°34'0 0.0
2014-Nov-17 17:33N 39°15' W 076°34'0 0.0
2014-Nov-17 16:33N 39°15' W 076°34'0 0.0
2014-Nov-17 15:31N 39°15' W 076°34'0 0.0
2014-Nov-17 14:32N 39°15' W 076°34'0 0.0
2014-Nov-17 13:33N 39°15' W 076°34'0 0.0
2014-Nov-17 12:33N 39°15' W 076°34'1 0.7
2014-Nov-17 11:16N 39°15' W 076°33'0 0.0
2014-Nov-17 10:31N 39°15' W 076°33'0 0.0
2014-Nov-17 09:19N 39°15' W 076°33'0 0.0
2014-Nov-17 08:06N 39°15' W 076°33'0 0.0
2014-Nov-17 07:33N 39°15' W 076°33'0 0.0
2014-Nov-17 06:24N 39°15' W 076°33'0 0.0
2014-Nov-17 05:28N 39°15' W 076°33'0 0.0
2014-Nov-17 04:32N 39°15' W 076°33'0 0.0
2014-Nov-17 03:30N 39°15' W 076°33'0 0.0
2014-Nov-17 02:33N 39°15' W 076°33'0 0.0
2014-Nov-17 01:31N 39°15' W 076°33'0 0.0
2014-Nov-17 00:32N 39°15' W 076°33'0 0.0
2014-Nov-16 23:29N 39°15' W 076°33'0 0.0
2014-Nov-16 22:33N 39°15' W 076°33'0 0.0
2014-Nov-16 21:33N 39°15' W 076°33'0 0.0
2014-Nov-16 20:31N 39°15' W 076°33'0 0.0
2014-Nov-16 19:32N 39°15' W 076°33'0 0.0
2014-Nov-16 18:32N 39°15' W 076°33'0 0.0
2014-Nov-16 17:33N 39°15' W 076°33'0 0.0
2014-Nov-16 16:31N 39°15' W 076°33'0 0.0
2014-Nov-16 15:31N 39°15' W 076°33'1 1.1
2014-Nov-16 14:31N 39°15' W 076°34'0 0.0
2014-Nov-16 13:17N 39°15' W 076°34'0 0.0
2014-Nov-16 12:15N 39°15' W 076°34'1 1.5
2014-Nov-16 11:32N 39°15' W 076°33'0 0.0
2014-Nov-16 10:34N 39°15' W 076°33'0 0.0
2014-Nov-16 09:31N 39°15' W 076°33'0 0.0
2014-Nov-16 08:31N 39°15' W 076°33'0 0.0
2014-Nov-16 07:29N 39°15' W 076°33'0 0.1
2014-Nov-16 06:33N 39°15' W 076°33'8 7.8
2014-Nov-16 05:33N 39°11' W 076°25'35 8.7
2014-Nov-16 01:33N 39°32' W 075°49'1010.0
2014-Nov-16 00:33N 39°33' W 075°36'7 7.0
2014-Nov-15 23:33N 39°27' W 075°33'9 0.5
2014-Nov-15 05:28N 39°20' W 075°26'7 8.2
2014-Nov-15 04:33N 39°26' W 075°32'8 7.6
2014-Nov-15 03:33N 39°33' W 075°33'6 6.1
2014-Nov-15 02:33N 39°33' W 075°41'36 6.6
2014-Nov-14 21:05N 39°14' W 076°21'4 7.9
2014-Nov-14 20:33N 39°11' W 076°25'7 7.4
2014-Nov-14 19:33N 39°15' W 076°33'0 0.5
2014-Nov-14 18:33N 39°15' W 076°33'0 0.0
2014-Nov-14 17:31N 39°15' W 076°33'0 0.0
2014-Nov-14 16:31N 39°15' W 076°33'0 0.5
2014-Nov-14 15:33N 39°15' W 076°34'1 0.6
2014-Nov-14 14:33N 39°15' W 076°34'0 0.0
2014-Nov-14 12:31N 39°15' W 076°34'0 0.4
2014-Nov-14 11:33N 39°15' W 076°34'0 0.0
2014-Nov-14 10:30N 39°15' W 076°34'0 0.0
2014-Nov-14 09:25N 39°15' W 076°34'0 0.0
2014-Nov-14 08:31N 39°15' W 076°34'0 0.0
2014-Nov-14 07:32N 39°15' W 076°34'0 0.0
2014-Nov-14 06:33N 39°15' W 076°34'0 0.0
2014-Nov-14 05:33N 39°15' W 076°34'0 0.0
2014-Nov-14 04:31N 39°15' W 076°34'0 0.0
2014-Nov-14 03:32N 39°15' W 076°34'0 0.0
2014-Nov-14 02:30N 39°15' W 076°34'0 0.4
2014-Nov-14 01:33N 39°15' W 076°34'8 8.0
2014-Nov-14 00:34N 39°11' W 076°25'38 9.4
2014-Nov-13 20:33N 39°32' W 075°44'9 8.8
2014-Nov-13 19:34N 39°35' W 075°34'7 6.5
2014-Nov-13 18:33N 39°41' W 075°31'21 0.6
2014-Nov-12 09:32N 39°54' W 075°08'0 0.0
2014-Nov-12 08:33N 39°54' W 075°08'0 0.0
2014-Nov-12 07:27N 39°54' W 075°08'0 0.0
2014-Nov-12 06:28N 39°54' W 075°08'0 0.0
2014-Nov-12 04:32N 39°54' W 075°08'0 0.0
2014-Nov-12 03:27N 39°54' W 075°08'3 0.7
2014-Nov-11 23:14N 39°54' W 075°12'  
Track history (hours):
 
Tides and Currents Weather Stations Pressure Air Temp Water Temp Dewpoint Dewpoint Depression Visibility Wind Speed Wind Dir Waves Ship Positions

Roanoke

Owner: Vane Line Bunkering, Baltimore, MD. More information available from US FCC via Universal Licensing System and Coast Guard Vessel Documentation Center.

Last reported at 2014-Nov-21 23:10 UTC. Time now 2014-Nov-22 05:03 UTC.
Position N 38°56' W 076°24'.

Length 32 m; draft 13 m.

Type: Towing. MMSI: 367314510.

Date/timePositionNaut miles runAvg speedWind from/ knotsBaromVisibWave heightAir tempDewpointWater temp
2014-Nov-21 23:10N 38°56' W 076°24'5 7.7
2014-Nov-21 22:33N 39°00' W 076°23'7 7.2
2014-Nov-21 21:34N 39°07' W 076°24'7 7.3
2014-Nov-21 20:34N 39°12' W 076°31'4 3.7
2014-Nov-21 19:31N 39°15' W 076°33'0 0.0
2014-Nov-21 18:32N 39°15' W 076°33'0 0.0
2014-Nov-21 17:30N 39°15' W 076°33'0 0.0
2014-Nov-21 16:33N 39°15' W 076°33'0 0.0
2014-Nov-21 15:31N 39°15' W 076°33'0 0.0
2014-Nov-21 14:32N 39°15' W 076°33'0 0.0
2014-Nov-21 13:32N 39°15' W 076°33'0 0.0
2014-Nov-21 12:33N 39°15' W 076°33'0 0.0
2014-Nov-21 11:33N 39°15' W 076°33'0 0.0
2014-Nov-21 10:31N 39°15' W 076°33'0 0.0
2014-Nov-21 09:31N 39°15' W 076°33'1 1.0
2014-Nov-21 08:33N 39°15' W 076°34'0 0.0
2014-Nov-21 07:31N 39°15' W 076°34'0 0.0
2014-Nov-21 06:23N 39°15' W 076°34'0 0.0
2014-Nov-21 05:32N 39°15' W 076°34'0 0.0
2014-Nov-21 04:33N 39°15' W 076°34'0 0.0
2014-Nov-21 03:31N 39°15' W 076°34'0 0.0
2014-Nov-21 02:29N 39°15' W 076°34'0 0.0
2014-Nov-21 01:20N 39°15' W 076°34'0 0.1
2014-Nov-20 22:29N 39°15' W 076°34'2 1.6
2014-Nov-20 21:34N 39°14' W 076°33'7 6.8
2014-Nov-20 20:34N 39°11' W 076°24'38 7.6
2014-Nov-20 15:33N 39°33' W 075°44'9 8.5
2014-Nov-20 14:33N 39°33' W 075°33'10 9.7
2014-Nov-20 13:33N 39°24' W 075°29'4 0.3
2014-Nov-19 22:24N 39°20' W 075°26'6 7.5
2014-Nov-19 21:33N 39°25' W 075°31'6 6.3
2014-Nov-19 20:33N 39°31' W 075°33'5 4.9
2014-Nov-19 19:33N 39°33' W 075°39'7 6.7
2014-Nov-19 18:33N 39°32' W 075°47'30 5.8
2014-Nov-19 13:21N 39°14' W 076°19'5 6.4
2014-Nov-19 12:33N 39°11' W 076°25'6 6.1
2014-Nov-19 11:33N 39°13' W 076°32'2 2.3
2014-Nov-19 10:32N 39°15' W 076°33'0 0.0
2014-Nov-19 09:33N 39°15' W 076°33'0 0.0
2014-Nov-19 08:31N 39°15' W 076°33'0 0.0
2014-Nov-19 07:32N 39°15' W 076°33'0 0.0
2014-Nov-19 06:33N 39°15' W 076°33'0 0.0
2014-Nov-19 05:33N 39°15' W 076°33'0 0.0
2014-Nov-19 04:33N 39°15' W 076°33'0 0.0
2014-Nov-19 03:31N 39°15' W 076°33'0 0.0
2014-Nov-19 02:32N 39°15' W 076°33'0 0.0
2014-Nov-19 01:33N 39°15' W 076°33'0 0.0
2014-Nov-19 00:30N 39°15' W 076°33'0 0.0
2014-Nov-18 23:31N 39°15' W 076°33'0 0.0
2014-Nov-18 22:29N 39°15' W 076°33'0 0.0
2014-Nov-18 21:32N 39°15' W 076°33'0 0.0
2014-Nov-18 20:33N 39°15' W 076°33'0 0.0
2014-Nov-18 19:25N 39°15' W 076°33'0 0.0
2014-Nov-18 18:31N 39°15' W 076°33'0 0.0
2014-Nov-18 17:26N 39°15' W 076°33'0 0.0
2014-Nov-18 16:18N 39°15' W 076°33'0 0.0
2014-Nov-18 15:27N 39°15' W 076°33'0 0.0
2014-Nov-18 14:31N 39°15' W 076°33'0 0.0
2014-Nov-18 13:32N 39°15' W 076°33'0 0.0
2014-Nov-18 12:29N 39°15' W 076°33'0 0.0
2014-Nov-18 11:30N 39°15' W 076°33'0 0.0
2014-Nov-18 10:31N 39°15' W 076°33'0 0.0
2014-Nov-18 09:31N 39°15' W 076°33'0 0.0
2014-Nov-18 08:29N 39°15' W 076°33'0 0.0
2014-Nov-18 07:33N 39°15' W 076°33'0 0.0
2014-Nov-18 06:31N 39°15' W 076°33'0 0.0
2014-Nov-18 05:31N 39°15' W 076°33'0 0.0
2014-Nov-18 04:32N 39°15' W 076°33'0 0.0
2014-Nov-18 03:33N 39°15' W 076°33'0 0.0
2014-Nov-18 02:09N 39°15' W 076°33'0 0.0
2014-Nov-18 01:28N 39°15' W 076°33'0 0.0
2014-Nov-18 00:31N 39°15' W 076°33'0 0.0
2014-Nov-17 23:30N 39°15' W 076°33'0 0.0
2014-Nov-17 22:33N 39°15' W 076°33'0 0.0
2014-Nov-17 21:33N 39°15' W 076°33'1 1.0
2014-Nov-17 20:33N 39°15' W 076°34'0 0.0
2014-Nov-17 19:31N 39°15' W 076°34'0 0.0
2014-Nov-17 18:26N 39°15' W 076°34'0 0.0
2014-Nov-17 17:33N 39°15' W 076°34'0 0.0
2014-Nov-17 16:33N 39°15' W 076°34'0 0.0
2014-Nov-17 15:31N 39°15' W 076°34'0 0.0
2014-Nov-17 14:32N 39°15' W 076°34'0 0.0
2014-Nov-17 13:33N 39°15' W 076°34'0 0.0
2014-Nov-17 12:33N 39°15' W 076°34'1 0.7
2014-Nov-17 11:16N 39°15' W 076°33'0 0.0
2014-Nov-17 10:31N 39°15' W 076°33'0 0.0
2014-Nov-17 09:19N 39°15' W 076°33'0 0.0
2014-Nov-17 08:06N 39°15' W 076°33'0 0.0
2014-Nov-17 07:33N 39°15' W 076°33'0 0.0
2014-Nov-17 06:24N 39°15' W 076°33'0 0.0
2014-Nov-17 05:28N 39°15' W 076°33'0 0.0
2014-Nov-17 04:32N 39°15' W 076°33'0 0.0
2014-Nov-17 03:30N 39°15' W 076°33'0 0.0
2014-Nov-17 02:33N 39°15' W 076°33'0 0.0
2014-Nov-17 01:31N 39°15' W 076°33'0 0.0
2014-Nov-17 00:32N 39°15' W 076°33'0 0.0
2014-Nov-16 23:29N 39°15' W 076°33'0 0.0
2014-Nov-16 22:33N 39°15' W 076°33'0 0.0
2014-Nov-16 21:33N 39°15' W 076°33'0 0.0
2014-Nov-16 20:31N 39°15' W 076°33'0 0.0
2014-Nov-16 19:32N 39°15' W 076°33'0 0.0
2014-Nov-16 18:32N 39°15' W 076°33'0 0.0
2014-Nov-16 17:33N 39°15' W 076°33'0 0.0
2014-Nov-16 16:31N 39°15' W 076°33'0 0.0
2014-Nov-16 15:31N 39°15' W 076°33'1 1.1
2014-Nov-16 14:31N 39°15' W 076°34'0 0.0
2014-Nov-16 13:17N 39°15' W 076°34'0 0.0
2014-Nov-16 12:15N 39°15' W 076°34'1 1.5
2014-Nov-16 11:32N 39°15' W 076°33'0 0.0
2014-Nov-16 10:34N 39°15' W 076°33'0 0.0
2014-Nov-16 09:31N 39°15' W 076°33'0 0.0
2014-Nov-16 08:31N 39°15' W 076°33'0 0.0
2014-Nov-16 07:29N 39°15' W 076°33'0 0.1
2014-Nov-16 06:33N 39°15' W 076°33'8 7.8
2014-Nov-16 05:33N 39°11' W 076°25'35 8.7
2014-Nov-16 01:33N 39°32' W 075°49'1010.0
2014-Nov-16 00:33N 39°33' W 075°36'7 7.0
2014-Nov-15 23:33N 39°27' W 075°33'9 0.5
2014-Nov-15 05:28N 39°20' W 075°26'7 8.2
2014-Nov-15 04:33N 39°26' W 075°32'8 7.6
2014-Nov-15 03:33N 39°33' W 075°33'6 6.1
2014-Nov-15 02:33N 39°33' W 075°41'36 6.6
2014-Nov-14 21:05N 39°14' W 076°21'4 7.9
2014-Nov-14 20:33N 39°11' W 076°25'7 7.4
2014-Nov-14 19:33N 39°15' W 076°33'0 0.5
2014-Nov-14 18:33N 39°15' W 076°33'0 0.0
2014-Nov-14 17:31N 39°15' W 076°33'0 0.0
2014-Nov-14 16:31N 39°15' W 076°33'0 0.5
2014-Nov-14 15:33N 39°15' W 076°34'1 0.6
2014-Nov-14 14:33N 39°15' W 076°34'0 0.0
2014-Nov-14 12:31N 39°15' W 076°34'0 0.4
2014-Nov-14 11:33N 39°15' W 076°34'0 0.0
2014-Nov-14 10:30N 39°15' W 076°34'0 0.0
2014-Nov-14 09:25N 39°15' W 076°34'0 0.0
2014-Nov-14 08:31N 39°15' W 076°34'0 0.0
2014-Nov-14 07:32N 39°15' W 076°34'0 0.0
2014-Nov-14 06:33N 39°15' W 076°34'0 0.0
2014-Nov-14 05:33N 39°15' W 076°34'0 0.0
2014-Nov-14 04:31N 39°15' W 076°34'0 0.0
2014-Nov-14 03:32N 39°15' W 076°34'0 0.0
2014-Nov-14 02:30N 39°15' W 076°34'0 0.4
2014-Nov-14 01:33N 39°15' W 076°34'8 8.0
2014-Nov-14 00:34N 39°11' W 076°25'38 9.4
2014-Nov-13 20:33N 39°32' W 075°44'9 8.8
2014-Nov-13 19:34N 39°35' W 075°34'7 6.5
2014-Nov-13 18:33N 39°41' W 075°31'21 0.6
2014-Nov-12 09:32N 39°54' W 075°08'0 0.0
2014-Nov-12 08:33N 39°54' W 075°08'0 0.0
2014-Nov-12 07:27N 39°54' W 075°08'0 0.0
2014-Nov-12 06:28N 39°54' W 075°08'0 0.0
2014-Nov-12 04:32N 39°54' W 075°08'0 0.0
2014-Nov-12 03:27N 39°54' W 075°08'3 0.7
2014-Nov-11 23:14N 39°54' W 075°12'  

Dump ship's entire track history